sensor_id;sensor_type;location;lat;lon;timestamp;P1;durP1;ratioP1;P2;durP2;ratioP2
52674;SDS011;38569;52.722;6.440;2023-12-29T00:01:56;9.50;;;2.75;;
52674;SDS011;38569;52.722;6.440;2023-12-29T00:04:22;12.57;;;2.65;;
52674;SDS011;38569;52.722;6.440;2023-12-29T00:06:47;20.42;;;4.22;;
52674;SDS011;38569;52.722;6.440;2023-12-29T00:09:16;19.50;;;4.70;;
52674;SDS011;38569;52.722;6.440;2023-12-29T00:11:45;9.10;;;2.53;;
52674;SDS011;38569;52.722;6.440;2023-12-29T00:14:20;15.38;;;2.78;;
52674;SDS011;38569;52.722;6.440;2023-12-29T00:16:45;12.57;;;2.55;;
52674;SDS011;38569;52.722;6.440;2023-12-29T00:19:11;14.50;;;3.05;;
52674;SDS011;38569;52.722;6.440;2023-12-29T00:21:38;15.75;;;3.55;;
52674;SDS011;38569;52.722;6.440;2023-12-29T00:24:03;15.13;;;3.17;;
52674;SDS011;38569;52.722;6.440;2023-12-29T00:26:30;14.68;;;3.08;;
52674;SDS011;38569;52.722;6.440;2023-12-29T00:28:56;13.10;;;2.67;;
52674;SDS011;38569;52.722;6.440;2023-12-29T00:31:21;22.13;;;3.83;;
52674;SDS011;38569;52.722;6.440;2023-12-29T00:33:48;14.68;;;3.40;;
52674;SDS011;38569;52.722;6.440;2023-12-29T00:36:17;14.27;;;2.53;;
52674;SDS011;38569;52.722;6.440;2023-12-29T00:38:43;13.95;;;3.03;;
52674;SDS011;38569;52.722;6.440;2023-12-29T00:41:09;15.52;;;2.88;;
52674;SDS011;38569;52.722;6.440;2023-12-29T00:43:35;17.80;;;3.47;;
52674;SDS011;38569;52.722;6.440;2023-12-29T00:46:04;18.17;;;3.70;;
52674;SDS011;38569;52.722;6.440;2023-12-29T00:48:33;21.35;;;3.88;;
52674;SDS011;38569;52.722;6.440;2023-12-29T00:51:03;13.95;;;3.53;;
52674;SDS011;38569;52.722;6.440;2023-12-29T00:53:29;16.38;;;3.80;;
52674;SDS011;38569;52.722;6.440;2023-12-29T00:55:57;10.35;;;3.58;;
52674;SDS011;38569;52.722;6.440;2023-12-29T00:58:23;22.65;;;3.50;;
52674;SDS011;38569;52.722;6.440;2023-12-29T01:00:49;21.27;;;4.55;;
52674;SDS011;38569;52.722;6.440;2023-12-29T01:03:15;21.85;;;4.45;;
52674;SDS011;38569;52.722;6.440;2023-12-29T01:05:40;21.85;;;4.35;;
52674;SDS011;38569;52.722;6.440;2023-12-29T01:08:06;19.75;;;3.90;;
52674;SDS011;38569;52.722;6.440;2023-12-29T01:10:32;17.05;;;3.72;;
52674;SDS011;38569;52.722;6.440;2023-12-29T01:12:57;17.52;;;4.40;;
52674;SDS011;38569;52.722;6.440;2023-12-29T01:15:23;27.40;;;5.40;;
52674;SDS011;38569;52.722;6.440;2023-12-29T01:17:49;21.92;;;4.00;;
52674;SDS011;38569;52.722;6.440;2023-12-29T01:20:14;20.20;;;3.70;;
52674;SDS011;38569;52.722;6.440;2023-12-29T01:22:40;23.90;;;4.10;;
52674;SDS011;38569;52.722;6.440;2023-12-29T01:25:06;15.45;;;3.83;;
52674;SDS011;38569;52.722;6.440;2023-12-29T01:27:32;16.55;;;3.47;;
52674;SDS011;38569;52.722;6.440;2023-12-29T01:29:58;17.05;;;3.50;;
52674;SDS011;38569;52.722;6.440;2023-12-29T01:32:25;12.15;;;3.20;;
52674;SDS011;38569;52.722;6.440;2023-12-29T01:34:51;11.30;;;3.30;;
52674;SDS011;38569;52.722;6.440;2023-12-29T01:37:17;16.50;;;3.10;;
52674;SDS011;38569;52.722;6.440;2023-12-29T01:39:43;13.60;;;3.15;;
52674;SDS011;38569;52.722;6.440;2023-12-29T01:42:09;15.20;;;2.83;;
52674;SDS011;38569;52.722;6.440;2023-12-29T01:44:36;14.43;;;2.90;;
52674;SDS011;38569;52.722;6.440;2023-12-29T01:47:02;11.75;;;3.00;;
52674;SDS011;38569;52.722;6.440;2023-12-29T01:49:35;17.73;;;2.78;;
52674;SDS011;38569;52.722;6.440;2023-12-29T01:52:02;18.30;;;3.35;;
52674;SDS011;38569;52.722;6.440;2023-12-29T01:54:30;16.10;;;3.55;;
52674;SDS011;38569;52.722;6.440;2023-12-29T01:57:00;15.25;;;3.25;;
52674;SDS011;38569;52.722;6.440;2023-12-29T01:59:27;18.70;;;3.60;;
52674;SDS011;38569;52.722;6.440;2023-12-29T02:01:54;15.15;;;3.80;;
52674;SDS011;38569;52.722;6.440;2023-12-29T02:04:20;15.73;;;3.83;;
52674;SDS011;38569;52.722;6.440;2023-12-29T02:06:49;13.15;;;3.50;;
52674;SDS011;38569;52.722;6.440;2023-12-29T02:09:15;12.60;;;2.83;;
52674;SDS011;38569;52.722;6.440;2023-12-29T02:11:42;15.18;;;3.30;;
52674;SDS011;38569;52.722;6.440;2023-12-29T02:14:08;15.48;;;4.32;;
52674;SDS011;38569;52.722;6.440;2023-12-29T02:16:38;14.05;;;3.63;;
52674;SDS011;38569;52.722;6.440;2023-12-29T02:21:49;18.35;;;3.60;;
52674;SDS011;38569;52.722;6.440;2023-12-29T02:24:15;11.10;;;2.60;;
52674;SDS011;38569;52.722;6.440;2023-12-29T02:26:41;14.45;;;3.22;;
52674;SDS011;38569;52.722;6.440;2023-12-29T02:29:12;13.75;;;3.28;;
52674;SDS011;38569;52.722;6.440;2023-12-29T02:31:42;10.27;;;2.78;;
52674;SDS011;38569;52.722;6.440;2023-12-29T02:34:12;19.23;;;3.30;;
52674;SDS011;38569;52.722;6.440;2023-12-29T02:36:40;13.45;;;2.75;;
52674;SDS011;38569;52.722;6.440;2023-12-29T02:39:08;11.60;;;3.03;;
52674;SDS011;38569;52.722;6.440;2023-12-29T02:41:36;15.20;;;3.92;;
52674;SDS011;38569;52.722;6.440;2023-12-29T02:44:05;15.43;;;2.63;;
52674;SDS011;38569;52.722;6.440;2023-12-29T02:46:31;14.63;;;3.97;;
52674;SDS011;38569;52.722;6.440;2023-12-29T02:48:57;16.13;;;5.05;;
52674;SDS011;38569;52.722;6.440;2023-12-29T02:51:24;14.40;;;5.13;;
52674;SDS011;38569;52.722;6.440;2023-12-29T02:53:50;11.82;;;3.72;;
52674;SDS011;38569;52.722;6.440;2023-12-29T02:56:15;21.25;;;4.57;;
52674;SDS011;38569;52.722;6.440;2023-12-29T02:58:41;13.13;;;3.25;;
52674;SDS011;38569;52.722;6.440;2023-12-29T03:01:07;17.95;;;3.47;;
52674;SDS011;38569;52.722;6.440;2023-12-29T03:03:32;21.20;;;3.65;;
52674;SDS011;38569;52.722;6.440;2023-12-29T03:05:58;16.73;;;3.63;;
52674;SDS011;38569;52.722;6.440;2023-12-29T03:08:24;14.00;;;3.28;;
52674;SDS011;38569;52.722;6.440;2023-12-29T03:10:49;14.95;;;3.35;;
52674;SDS011;38569;52.722;6.440;2023-12-29T03:13:15;11.65;;;3.35;;
52674;SDS011;38569;52.722;6.440;2023-12-29T03:15:41;19.00;;;4.10;;
52674;SDS011;38569;52.722;6.440;2023-12-29T03:18:07;9.88;;;2.58;;
52674;SDS011;38569;52.722;6.440;2023-12-29T03:20:32;17.30;;;3.58;;
52674;SDS011;38569;52.722;6.440;2023-12-29T03:22:58;13.77;;;3.70;;
52674;SDS011;38569;52.722;6.440;2023-12-29T03:25:24;15.27;;;3.25;;
52674;SDS011;38569;52.722;6.440;2023-12-29T03:27:49;13.52;;;3.25;;
52674;SDS011;38569;52.722;6.440;2023-12-29T03:30:15;17.65;;;4.47;;
52674;SDS011;38569;52.722;6.440;2023-12-29T03:32:41;14.90;;;3.03;;
52674;SDS011;38569;52.722;6.440;2023-12-29T03:35:06;9.18;;;2.60;;
52674;SDS011;38569;52.722;6.440;2023-12-29T03:37:32;13.55;;;2.97;;
52674;SDS011;38569;52.722;6.440;2023-12-29T03:39:58;16.20;;;4.57;;
52674;SDS011;38569;52.722;6.440;2023-12-29T03:42:23;12.00;;;2.80;;
52674;SDS011;38569;52.722;6.440;2023-12-29T03:44:49;19.02;;;3.42;;
52674;SDS011;38569;52.722;6.440;2023-12-29T03:47:15;18.90;;;3.67;;
52674;SDS011;38569;52.722;6.440;2023-12-29T03:49:40;11.45;;;2.65;;
52674;SDS011;38569;52.722;6.440;2023-12-29T03:52:06;16.13;;;3.97;;
52674;SDS011;38569;52.722;6.440;2023-12-29T03:54:32;19.23;;;4.15;;
52674;SDS011;38569;52.722;6.440;2023-12-29T03:56:57;14.00;;;3.97;;
52674;SDS011;38569;52.722;6.440;2023-12-29T03:59:23;15.93;;;3.60;;
52674;SDS011;38569;52.722;6.440;2023-12-29T04:01:49;19.55;;;3.72;;
52674;SDS011;38569;52.722;6.440;2023-12-29T04:04:15;16.88;;;4.55;;
52674;SDS011;38569;52.722;6.440;2023-12-29T04:06:40;16.48;;;4.65;;
52674;SDS011;38569;52.722;6.440;2023-12-29T04:09:06;18.13;;;3.90;;
52674;SDS011;38569;52.722;6.440;2023-12-29T04:11:32;18.98;;;4.18;;
52674;SDS011;38569;52.722;6.440;2023-12-29T04:13:58;19.23;;;4.13;;
52674;SDS011;38569;52.722;6.440;2023-12-29T04:16:23;23.85;;;4.45;;
52674;SDS011;38569;52.722;6.440;2023-12-29T04:18:49;19.33;;;4.93;;
52674;SDS011;38569;52.722;6.440;2023-12-29T04:21:15;26.95;;;5.28;;
52674;SDS011;38569;52.722;6.440;2023-12-29T04:23:40;23.40;;;4.15;;
52674;SDS011;38569;52.722;6.440;2023-12-29T04:26:09;26.10;;;3.92;;
52674;SDS011;38569;52.722;6.440;2023-12-29T04:28:35;20.08;;;4.80;;
52674;SDS011;38569;52.722;6.440;2023-12-29T04:31:01;14.63;;;3.58;;
52674;SDS011;38569;52.722;6.440;2023-12-29T04:33:26;22.00;;;4.55;;
52674;SDS011;38569;52.722;6.440;2023-12-29T04:35:52;24.45;;;3.67;;
52674;SDS011;38569;52.722;6.440;2023-12-29T04:38:18;18.33;;;4.25;;
52674;SDS011;38569;52.722;6.440;2023-12-29T04:40:45;17.00;;;3.30;;
52674;SDS011;38569;52.722;6.440;2023-12-29T04:43:12;18.15;;;3.70;;
52674;SDS011;38569;52.722;6.440;2023-12-29T04:45:38;23.70;;;3.85;;
52674;SDS011;38569;52.722;6.440;2023-12-29T04:48:04;15.05;;;4.53;;
52674;SDS011;38569;52.722;6.440;2023-12-29T04:50:29;23.52;;;4.05;;
52674;SDS011;38569;52.722;6.440;2023-12-29T04:52:55;21.23;;;4.05;;
52674;SDS011;38569;52.722;6.440;2023-12-29T04:55:21;20.23;;;5.43;;
52674;SDS011;38569;52.722;6.440;2023-12-29T04:57:46;20.73;;;4.20;;
52674;SDS011;38569;52.722;6.440;2023-12-29T05:00:12;22.73;;;4.70;;
52674;SDS011;38569;52.722;6.440;2023-12-29T05:02:38;22.35;;;3.97;;
52674;SDS011;38569;52.722;6.440;2023-12-29T05:05:04;16.63;;;4.05;;
52674;SDS011;38569;52.722;6.440;2023-12-29T05:07:30;21.20;;;4.88;;
52674;SDS011;38569;52.722;6.440;2023-12-29T05:09:56;24.00;;;5.57;;
52674;SDS011;38569;52.722;6.440;2023-12-29T05:12:21;21.75;;;5.13;;
52674;SDS011;38569;52.722;6.440;2023-12-29T05:14:47;32.20;;;5.78;;
52674;SDS011;38569;52.722;6.440;2023-12-29T05:17:13;30.88;;;5.30;;
52674;SDS011;38569;52.722;6.440;2023-12-29T05:19:38;23.70;;;4.50;;
52674;SDS011;38569;52.722;6.440;2023-12-29T05:22:04;19.83;;;4.60;;
52674;SDS011;38569;52.722;6.440;2023-12-29T05:24:30;20.85;;;4.65;;
52674;SDS011;38569;52.722;6.440;2023-12-29T05:26:55;26.45;;;6.75;;
52674;SDS011;38569;52.722;6.440;2023-12-29T05:29:21;19.10;;;4.35;;
52674;SDS011;38569;52.722;6.440;2023-12-29T05:31:47;26.08;;;5.03;;
52674;SDS011;38569;52.722;6.440;2023-12-29T05:34:12;32.42;;;5.13;;
52674;SDS011;38569;52.722;6.440;2023-12-29T05:36:38;23.88;;;4.40;;
52674;SDS011;38569;52.722;6.440;2023-12-29T05:39:04;26.83;;;4.97;;
52674;SDS011;38569;52.722;6.440;2023-12-29T05:41:30;24.02;;;5.78;;
52674;SDS011;38569;52.722;6.440;2023-12-29T05:43:56;29.05;;;5.63;;
52674;SDS011;38569;52.722;6.440;2023-12-29T05:46:23;24.08;;;4.80;;
52674;SDS011;38569;52.722;6.440;2023-12-29T05:48:49;34.60;;;7.13;;
52674;SDS011;38569;52.722;6.440;2023-12-29T05:51:17;21.48;;;4.95;;
52674;SDS011;38569;52.722;6.440;2023-12-29T05:53:43;25.00;;;7.22;;
52674;SDS011;38569;52.722;6.440;2023-12-29T05:56:12;24.92;;;4.93;;
52674;SDS011;38569;52.722;6.440;2023-12-29T05:58:42;28.33;;;6.78;;
52674;SDS011;38569;52.722;6.440;2023-12-29T06:01:08;22.42;;;4.47;;
52674;SDS011;38569;52.722;6.440;2023-12-29T06:03:34;25.60;;;5.10;;
52674;SDS011;38569;52.722;6.440;2023-12-29T06:06:00;28.13;;;4.57;;
52674;SDS011;38569;52.722;6.440;2023-12-29T06:08:26;25.27;;;5.78;;
52674;SDS011;38569;52.722;6.440;2023-12-29T06:10:52;21.10;;;5.35;;
52674;SDS011;38569;52.722;6.440;2023-12-29T06:13:17;30.98;;;5.32;;
52674;SDS011;38569;52.722;6.440;2023-12-29T06:15:43;23.40;;;5.53;;
52674;SDS011;38569;52.722;6.440;2023-12-29T06:18:09;42.15;;;8.68;;
52674;SDS011;38569;52.722;6.440;2023-12-29T06:20:35;25.35;;;6.20;;
52674;SDS011;38569;52.722;6.440;2023-12-29T06:23:01;22.80;;;5.25;;
52674;SDS011;38569;52.722;6.440;2023-12-29T06:25:26;29.20;;;5.30;;
52674;SDS011;38569;52.722;6.440;2023-12-29T06:27:53;32.85;;;7.90;;
52674;SDS011;38569;52.722;6.440;2023-12-29T06:30:19;25.88;;;6.40;;
52674;SDS011;38569;52.722;6.440;2023-12-29T06:32:45;27.77;;;6.47;;
52674;SDS011;38569;52.722;6.440;2023-12-29T06:35:11;33.85;;;6.38;;
52674;SDS011;38569;52.722;6.440;2023-12-29T06:37:37;27.35;;;6.10;;
52674;SDS011;38569;52.722;6.440;2023-12-29T06:40:04;33.47;;;5.78;;
52674;SDS011;38569;52.722;6.440;2023-12-29T06:42:31;30.60;;;6.25;;
52674;SDS011;38569;52.722;6.440;2023-12-29T06:44:57;24.35;;;5.32;;
52674;SDS011;38569;52.722;6.440;2023-12-29T06:47:23;45.53;;;8.45;;
52674;SDS011;38569;52.722;6.440;2023-12-29T06:49:48;27.13;;;5.93;;
52674;SDS011;38569;52.722;6.440;2023-12-29T06:52:15;28.70;;;6.50;;
52674;SDS011;38569;52.722;6.440;2023-12-29T06:54:41;38.22;;;5.97;;
52674;SDS011;38569;52.722;6.440;2023-12-29T06:57:06;44.47;;;7.78;;
52674;SDS011;38569;52.722;6.440;2023-12-29T06:59:32;33.08;;;6.28;;
52674;SDS011;38569;52.722;6.440;2023-12-29T07:01:58;41.10;;;6.63;;
52674;SDS011;38569;52.722;6.440;2023-12-29T07:04:23;48.70;;;7.80;;
52674;SDS011;38569;52.722;6.440;2023-12-29T07:06:49;28.05;;;6.25;;
52674;SDS011;38569;52.722;6.440;2023-12-29T07:09:15;38.25;;;6.40;;
52674;SDS011;38569;52.722;6.440;2023-12-29T07:11:41;32.47;;;6.03;;
52674;SDS011;38569;52.722;6.440;2023-12-29T07:14:06;41.25;;;6.63;;
52674;SDS011;38569;52.722;6.440;2023-12-29T07:16:32;27.55;;;5.22;;
52674;SDS011;38569;52.722;6.440;2023-12-29T07:18:58;42.50;;;7.65;;
52674;SDS011;38569;52.722;6.440;2023-12-29T07:21:23;28.30;;;6.38;;
52674;SDS011;38569;52.722;6.440;2023-12-29T07:23:49;34.42;;;6.22;;
52674;SDS011;38569;52.722;6.440;2023-12-29T07:26:15;34.47;;;5.93;;
52674;SDS011;38569;52.722;6.440;2023-12-29T07:28:41;32.17;;;7.55;;
52674;SDS011;38569;52.722;6.440;2023-12-29T07:31:06;33.30;;;7.03;;
52674;SDS011;38569;52.722;6.440;2023-12-29T07:33:33;37.88;;;6.20;;
52674;SDS011;38569;52.722;6.440;2023-12-29T07:35:59;34.65;;;6.47;;
52674;SDS011;38569;52.722;6.440;2023-12-29T07:38:25;31.33;;;6.75;;
52674;SDS011;38569;52.722;6.440;2023-12-29T07:40:51;24.45;;;6.32;;
52674;SDS011;38569;52.722;6.440;2023-12-29T07:43:16;35.95;;;6.82;;
52674;SDS011;38569;52.722;6.440;2023-12-29T07:45:42;29.60;;;5.32;;
52674;SDS011;38569;52.722;6.440;2023-12-29T07:48:10;16.65;;;4.65;;
52674;SDS011;38569;52.722;6.440;2023-12-29T07:50:36;31.75;;;7.07;;
52674;SDS011;38569;52.722;6.440;2023-12-29T07:53:02;23.95;;;5.35;;
52674;SDS011;38569;52.722;6.440;2023-12-29T07:55:29;19.60;;;6.03;;
52674;SDS011;38569;52.722;6.440;2023-12-29T07:57:56;30.30;;;5.40;;
52674;SDS011;38569;52.722;6.440;2023-12-29T08:00:21;29.67;;;4.90;;
52674;SDS011;38569;52.722;6.440;2023-12-29T08:02:48;33.35;;;7.20;;
52674;SDS011;38569;52.722;6.440;2023-12-29T08:05:15;32.10;;;6.22;;
52674;SDS011;38569;52.722;6.440;2023-12-29T08:07:41;28.35;;;5.32;;
52674;SDS011;38569;52.722;6.440;2023-12-29T08:10:08;25.85;;;4.78;;
52674;SDS011;38569;52.722;6.440;2023-12-29T08:12:34;25.42;;;5.20;;
52674;SDS011;38569;52.722;6.440;2023-12-29T08:15:01;26.63;;;4.50;;
52674;SDS011;38569;52.722;6.440;2023-12-29T08:17:27;25.83;;;4.22;;
52674;SDS011;38569;52.722;6.440;2023-12-29T08:19:54;23.35;;;4.75;;
52674;SDS011;38569;52.722;6.440;2023-12-29T08:22:20;32.17;;;4.68;;
52674;SDS011;38569;52.722;6.440;2023-12-29T08:24:46;24.35;;;4.82;;
52674;SDS011;38569;52.722;6.440;2023-12-29T08:27:12;27.27;;;5.30;;
52674;SDS011;38569;52.722;6.440;2023-12-29T08:29:38;25.30;;;4.15;;
52674;SDS011;38569;52.722;6.440;2023-12-29T08:32:03;33.40;;;5.72;;
52674;SDS011;38569;52.722;6.440;2023-12-29T08:34:29;22.92;;;4.25;;
52674;SDS011;38569;52.722;6.440;2023-12-29T08:36:55;22.02;;;4.90;;
52674;SDS011;38569;52.722;6.440;2023-12-29T08:39:21;34.58;;;6.70;;
52674;SDS011;38569;52.722;6.440;2023-12-29T08:41:47;30.35;;;4.93;;
52674;SDS011;38569;52.722;6.440;2023-12-29T08:44:15;23.33;;;5.13;;
52674;SDS011;38569;52.722;6.440;2023-12-29T08:46:41;24.40;;;4.55;;
52674;SDS011;38569;52.722;6.440;2023-12-29T08:49:06;18.25;;;4.85;;
52674;SDS011;38569;52.722;6.440;2023-12-29T08:51:32;13.73;;;3.33;;
52674;SDS011;38569;52.722;6.440;2023-12-29T08:53:58;19.48;;;5.43;;
52674;SDS011;38569;52.722;6.440;2023-12-29T08:56:24;27.38;;;4.63;;
52674;SDS011;38569;52.722;6.440;2023-12-29T08:58:50;15.75;;;3.85;;
52674;SDS011;38569;52.722;6.440;2023-12-29T09:01:16;15.65;;;3.25;;
52674;SDS011;38569;52.722;6.440;2023-12-29T09:03:42;16.13;;;4.13;;
52674;SDS011;38569;52.722;6.440;2023-12-29T09:06:08;18.20;;;3.88;;
52674;SDS011;38569;52.722;6.440;2023-12-29T09:08:34;16.23;;;3.50;;
52674;SDS011;38569;52.722;6.440;2023-12-29T09:11:00;12.65;;;3.22;;
52674;SDS011;38569;52.722;6.440;2023-12-29T09:13:26;17.38;;;4.10;;
52674;SDS011;38569;52.722;6.440;2023-12-29T09:15:53;11.60;;;3.20;;
52674;SDS011;38569;52.722;6.440;2023-12-29T09:18:19;22.90;;;3.50;;
52674;SDS011;38569;52.722;6.440;2023-12-29T09:20:45;17.55;;;3.45;;
52674;SDS011;38569;52.722;6.440;2023-12-29T09:23:11;15.15;;;3.35;;
52674;SDS011;38569;52.722;6.440;2023-12-29T09:25:36;23.10;;;4.63;;
52674;SDS011;38569;52.722;6.440;2023-12-29T09:28:02;14.10;;;3.47;;
52674;SDS011;38569;52.722;6.440;2023-12-29T09:30:28;23.30;;;4.25;;
52674;SDS011;38569;52.722;6.440;2023-12-29T09:32:54;18.67;;;3.72;;
52674;SDS011;38569;52.722;6.440;2023-12-29T09:35:20;12.82;;;3.47;;
52674;SDS011;38569;52.722;6.440;2023-12-29T09:37:47;16.98;;;3.90;;
52674;SDS011;38569;52.722;6.440;2023-12-29T09:40:14;11.77;;;2.90;;
52674;SDS011;38569;52.722;6.440;2023-12-29T09:42:40;17.13;;;2.92;;
52674;SDS011;38569;52.722;6.440;2023-12-29T09:45:10;10.98;;;2.53;;
52674;SDS011;38569;52.722;6.440;2023-12-29T09:47:40;16.63;;;3.08;;
52674;SDS011;38569;52.722;6.440;2023-12-29T09:50:09;9.20;;;3.47;;
52674;SDS011;38569;52.722;6.440;2023-12-29T09:52:40;14.10;;;2.70;;
52674;SDS011;38569;52.722;6.440;2023-12-29T09:55:09;14.60;;;2.60;;
52674;SDS011;38569;52.722;6.440;2023-12-29T09:57:38;11.40;;;3.25;;
52674;SDS011;38569;52.722;6.440;2023-12-29T10:00:09;19.00;;;3.63;;
52674;SDS011;38569;52.722;6.440;2023-12-29T10:02:36;13.15;;;2.25;;
52674;SDS011;38569;52.722;6.440;2023-12-29T10:05:03;8.57;;;2.38;;
52674;SDS011;38569;52.722;6.440;2023-12-29T10:07:31;13.13;;;2.53;;
52674;SDS011;38569;52.722;6.440;2023-12-29T10:10:03;11.63;;;2.55;;
52674;SDS011;38569;52.722;6.440;2023-12-29T10:12:31;13.55;;;2.53;;
52674;SDS011;38569;52.722;6.440;2023-12-29T10:15:05;6.72;;;1.52;;
52674;SDS011;38569;52.722;6.440;2023-12-29T10:26:17;3.10;;;1.20;;
52674;SDS011;38569;52.722;6.440;2023-12-29T10:28:43;6.53;;;1.83;;
52674;SDS011;38569;52.722;6.440;2023-12-29T10:31:16;13.32;;;2.13;;
52674;SDS011;38569;52.722;6.440;2023-12-29T10:33:41;8.02;;;1.80;;
52674;SDS011;38569;52.722;6.440;2023-12-29T10:36:07;5.05;;;1.48;;
52674;SDS011;38569;52.722;6.440;2023-12-29T10:38:34;4.05;;;1.42;;
52674;SDS011;38569;52.722;6.440;2023-12-29T10:41:12;5.38;;;1.20;;
52674;SDS011;38569;52.722;6.440;2023-12-29T10:43:40;7.63;;;1.40;;
52674;SDS011;38569;52.722;6.440;2023-12-29T10:46:07;6.00;;;1.58;;
52674;SDS011;38569;52.722;6.440;2023-12-29T10:48:34;7.75;;;1.65;;
52674;SDS011;38569;52.722;6.440;2023-12-29T10:51:00;6.93;;;1.80;;
52674;SDS011;38569;52.722;6.440;2023-12-29T10:53:36;6.47;;;1.70;;
52674;SDS011;38569;52.722;6.440;2023-12-29T10:56:02;6.80;;;1.92;;
52674;SDS011;38569;52.722;6.440;2023-12-29T10:58:28;10.25;;;2.47;;
52674;SDS011;38569;52.722;6.440;2023-12-29T11:01:01;14.85;;;3.35;;
52674;SDS011;38569;52.722;6.440;2023-12-29T11:03:38;11.52;;;2.22;;
52674;SDS011;38569;52.722;6.440;2023-12-29T11:06:05;14.40;;;2.53;;
52674;SDS011;38569;52.722;6.440;2023-12-29T11:08:31;16.05;;;2.47;;
52674;SDS011;38569;52.722;6.440;2023-12-29T11:11:00;12.88;;;2.67;;
52674;SDS011;38569;52.722;6.440;2023-12-29T11:13:28;11.35;;;2.70;;
52674;SDS011;38569;52.722;6.440;2023-12-29T11:15:55;15.32;;;3.05;;
52674;SDS011;38569;52.722;6.440;2023-12-29T11:18:22;16.60;;;2.90;;
52674;SDS011;38569;52.722;6.440;2023-12-29T11:20:48;16.90;;;2.88;;
52674;SDS011;38569;52.722;6.440;2023-12-29T11:23:14;9.95;;;2.50;;
52674;SDS011;38569;52.722;6.440;2023-12-29T11:25:43;15.13;;;3.10;;
52674;SDS011;38569;52.722;6.440;2023-12-29T11:28:13;13.93;;;3.22;;
52674;SDS011;38569;52.722;6.440;2023-12-29T11:30:40;16.77;;;2.95;;
52674;SDS011;38569;52.722;6.440;2023-12-29T11:33:08;17.02;;;3.85;;
52674;SDS011;38569;52.722;6.440;2023-12-29T11:38:52;14.23;;;3.03;;
52674;SDS011;38569;52.722;6.440;2023-12-29T11:41:49;18.23;;;3.75;;
52674;SDS011;38569;52.722;6.440;2023-12-29T11:44:25;22.85;;;3.67;;
52674;SDS011;38569;52.722;6.440;2023-12-29T11:46:52;17.92;;;3.28;;
52674;SDS011;38569;52.722;6.440;2023-12-29T11:49:19;13.85;;;3.30;;
52674;SDS011;38569;52.722;6.440;2023-12-29T11:51:48;21.15;;;3.40;;
52674;SDS011;38569;52.722;6.440;2023-12-29T11:54:24;19.40;;;4.82;;
52674;SDS011;38569;52.722;6.440;2023-12-29T11:56:51;26.40;;;4.05;;
52674;SDS011;38569;52.722;6.440;2023-12-29T11:59:18;16.08;;;3.40;;
52674;SDS011;38569;52.722;6.440;2023-12-29T12:01:48;13.30;;;2.85;;
52674;SDS011;38569;52.722;6.440;2023-12-29T12:07:16;18.80;;;4.47;;
52674;SDS011;38569;52.722;6.440;2023-12-29T12:12:47;16.98;;;3.80;;
52674;SDS011;38569;52.722;6.440;2023-12-29T12:18:06;16.30;;;3.15;;
52674;SDS011;38569;52.722;6.440;2023-12-29T12:20:35;17.83;;;4.32;;
52674;SDS011;38569;52.722;6.440;2023-12-29T12:23:02;13.73;;;3.85;;
52674;SDS011;38569;52.722;6.440;2023-12-29T12:25:36;21.48;;;3.95;;
52674;SDS011;38569;52.722;6.440;2023-12-29T12:28:09;19.95;;;4.88;;
52674;SDS011;38569;52.722;6.440;2023-12-29T12:30:38;17.77;;;4.30;;
52674;SDS011;38569;52.722;6.440;2023-12-29T12:33:04;24.33;;;6.35;;
52674;SDS011;38569;52.722;6.440;2023-12-29T12:35:30;24.13;;;6.00;;
52674;SDS011;38569;52.722;6.440;2023-12-29T12:40:35;15.98;;;3.10;;
52674;SDS011;38569;52.722;6.440;2023-12-29T12:43:01;14.18;;;3.10;;
52674;SDS011;38569;52.722;6.440;2023-12-29T12:45:28;15.02;;;3.17;;
52674;SDS011;38569;52.722;6.440;2023-12-29T12:48:11;13.65;;;3.33;;
52674;SDS011;38569;52.722;6.440;2023-12-29T12:50:46;10.82;;;2.90;;
52674;SDS011;38569;52.722;6.440;2023-12-29T12:53:12;11.20;;;2.55;;
52674;SDS011;38569;52.722;6.440;2023-12-29T12:55:45;15.45;;;3.97;;
52674;SDS011;38569;52.722;6.440;2023-12-29T12:58:13;15.63;;;2.97;;
52674;SDS011;38569;52.722;6.440;2023-12-29T13:00:40;14.27;;;3.00;;
52674;SDS011;38569;52.722;6.440;2023-12-29T13:03:06;11.13;;;3.67;;
52674;SDS011;38569;52.722;6.440;2023-12-29T13:05:33;15.52;;;2.70;;
52674;SDS011;38569;52.722;6.440;2023-12-29T13:08:00;15.38;;;3.42;;
52674;SDS011;38569;52.722;6.440;2023-12-29T13:10:28;16.38;;;3.97;;
52674;SDS011;38569;52.722;6.440;2023-12-29T13:12:54;16.38;;;3.28;;
52674;SDS011;38569;52.722;6.440;2023-12-29T13:15:20;16.65;;;3.30;;
52674;SDS011;38569;52.722;6.440;2023-12-29T13:17:50;19.70;;;3.65;;
52674;SDS011;38569;52.722;6.440;2023-12-29T13:20:19;17.52;;;3.00;;
52674;SDS011;38569;52.722;6.440;2023-12-29T13:22:51;16.75;;;3.08;;
52674;SDS011;38569;52.722;6.440;2023-12-29T13:25:20;14.90;;;2.80;;
52674;SDS011;38569;52.722;6.440;2023-12-29T13:27:48;11.75;;;2.70;;
52674;SDS011;38569;52.722;6.440;2023-12-29T13:30:15;17.75;;;3.20;;
52674;SDS011;38569;52.722;6.440;2023-12-29T13:32:41;14.90;;;3.97;;
52674;SDS011;38569;52.722;6.440;2023-12-29T13:35:20;13.88;;;2.85;;
52674;SDS011;38569;52.722;6.440;2023-12-29T13:38:07;15.70;;;3.35;;
52674;SDS011;38569;52.722;6.440;2023-12-29T13:43:25;15.00;;;3.70;;
52674;SDS011;38569;52.722;6.440;2023-12-29T13:45:53;14.70;;;3.72;;
52674;SDS011;38569;52.722;6.440;2023-12-29T13:48:20;13.85;;;2.95;;
52674;SDS011;38569;52.722;6.440;2023-12-29T13:50:47;14.48;;;2.75;;
52674;SDS011;38569;52.722;6.440;2023-12-29T13:53:20;13.82;;;2.90;;
52674;SDS011;38569;52.722;6.440;2023-12-29T13:55:47;11.85;;;2.50;;
52674;SDS011;38569;52.722;6.440;2023-12-29T13:58:13;12.40;;;2.67;;
52674;SDS011;38569;52.722;6.440;2023-12-29T14:00:40;12.20;;;3.13;;
52674;SDS011;38569;52.722;6.440;2023-12-29T14:03:06;16.65;;;2.88;;
52674;SDS011;38569;52.722;6.440;2023-12-29T14:05:43;9.48;;;2.20;;
52674;SDS011;38569;52.722;6.440;2023-12-29T14:08:17;16.63;;;3.10;;
52674;SDS011;38569;52.722;6.440;2023-12-29T14:10:51;18.42;;;3.50;;
52674;SDS011;38569;52.722;6.440;2023-12-29T14:13:17;14.68;;;3.08;;
52674;SDS011;38569;52.722;6.440;2023-12-29T14:15:43;12.93;;;2.47;;
52674;SDS011;38569;52.722;6.440;2023-12-29T14:20:41;10.52;;;3.28;;
52674;SDS011;38569;52.722;6.440;2023-12-29T14:23:07;17.75;;;3.33;;
52674;SDS011;38569;52.722;6.440;2023-12-29T14:25:36;17.02;;;3.22;;
52674;SDS011;38569;52.722;6.440;2023-12-29T14:28:18;15.25;;;3.15;;
52674;SDS011;38569;52.722;6.440;2023-12-29T14:30:46;11.68;;;2.92;;
52674;SDS011;38569;52.722;6.440;2023-12-29T14:33:11;12.52;;;2.95;;
52674;SDS011;38569;52.722;6.440;2023-12-29T14:35:37;17.70;;;3.13;;
52674;SDS011;38569;52.722;6.440;2023-12-29T14:38:03;19.88;;;4.35;;
52674;SDS011;38569;52.722;6.440;2023-12-29T14:40:29;16.13;;;3.40;;
52674;SDS011;38569;52.722;6.440;2023-12-29T14:42:55;20.67;;;4.47;;
52674;SDS011;38569;52.722;6.440;2023-12-29T14:45:21;16.00;;;6.70;;
52674;SDS011;38569;52.722;6.440;2023-12-29T14:47:47;19.95;;;5.75;;
52674;SDS011;38569;52.722;6.440;2023-12-29T14:50:14;15.35;;;3.95;;
52674;SDS011;38569;52.722;6.440;2023-12-29T14:52:40;21.85;;;4.15;;
52674;SDS011;38569;52.722;6.440;2023-12-29T14:55:06;16.77;;;3.80;;
52674;SDS011;38569;52.722;6.440;2023-12-29T14:57:32;13.80;;;3.08;;
52674;SDS011;38569;52.722;6.440;2023-12-29T14:59:58;16.65;;;5.78;;
52674;SDS011;38569;52.722;6.440;2023-12-29T15:02:23;24.35;;;5.53;;
52674;SDS011;38569;52.722;6.440;2023-12-29T15:04:49;18.95;;;5.88;;
52674;SDS011;38569;52.722;6.440;2023-12-29T15:07:15;53.70;;;19.50;;